sensor_id;sensor_type;location;lat;lon;timestamp;P1;durP1;ratioP1;P2;durP2;ratioP2
21183;SDS011;18176;49.502;11.754;2023-04-25T00:03:10;4.47;;;3.57;;
21183;SDS011;18176;49.502;11.754;2023-04-25T00:07:11;5.00;;;3.53;;
21183;SDS011;18176;49.502;11.754;2023-04-25T00:11:11;4.97;;;3.70;;
21183;SDS011;18176;49.502;11.754;2023-04-25T00:15:12;7.17;;;3.50;;
21183;SDS011;18176;49.502;11.754;2023-04-25T00:19:15;5.57;;;3.60;;
21183;SDS011;18176;49.502;11.754;2023-04-25T00:23:15;5.17;;;3.40;;
21183;SDS011;18176;49.502;11.754;2023-04-25T00:27:16;3.93;;;3.50;;
21183;SDS011;18176;49.502;11.754;2023-04-25T00:31:17;7.53;;;3.70;;
21183;SDS011;18176;49.502;11.754;2023-04-25T00:35:19;4.53;;;3.57;;
21183;SDS011;18176;49.502;11.754;2023-04-25T00:39:20;6.67;;;3.60;;
21183;SDS011;18176;49.502;11.754;2023-04-25T00:43:20;3.87;;;3.17;;
21183;SDS011;18176;49.502;11.754;2023-04-25T00:47:20;5.13;;;3.80;;
21183;SDS011;18176;49.502;11.754;2023-04-25T00:51:24;5.10;;;3.50;;
21183;SDS011;18176;49.502;11.754;2023-04-25T00:55:27;5.07;;;3.50;;
21183;SDS011;18176;49.502;11.754;2023-04-25T00:59:28;5.20;;;3.70;;
21183;SDS011;18176;49.502;11.754;2023-04-25T01:03:28;5.43;;;3.93;;
21183;SDS011;18176;49.502;11.754;2023-04-25T01:07:35;5.03;;;4.30;;
21183;SDS011;18176;49.502;11.754;2023-04-25T01:11:37;7.43;;;4.27;;
21183;SDS011;18176;49.502;11.754;2023-04-25T01:15:37;7.47;;;4.30;;
21183;SDS011;18176;49.502;11.754;2023-04-25T01:19:37;10.67;;;4.17;;
21183;SDS011;18176;49.502;11.754;2023-04-25T01:23:41;7.23;;;4.10;;
21183;SDS011;18176;49.502;11.754;2023-04-25T01:27:42;7.43;;;4.33;;
21183;SDS011;18176;49.502;11.754;2023-04-25T01:31:43;6.53;;;3.50;;
21183;SDS011;18176;49.502;11.754;2023-04-25T01:35:45;5.50;;;4.27;;
21183;SDS011;18176;49.502;11.754;2023-04-25T01:39:51;4.70;;;4.10;;
21183;SDS011;18176;49.502;11.754;2023-04-25T01:43:51;5.10;;;4.30;;
21183;SDS011;18176;49.502;11.754;2023-04-25T01:47:52;5.60;;;4.50;;
21183;SDS011;18176;49.502;11.754;2023-04-25T01:51:55;5.53;;;4.20;;
21183;SDS011;18176;49.502;11.754;2023-04-25T01:55:58;7.40;;;4.20;;
21183;SDS011;18176;49.502;11.754;2023-04-25T02:00:03;5.90;;;4.50;;
21183;SDS011;18176;49.502;11.754;2023-04-25T02:04:09;7.47;;;4.93;;
21183;SDS011;18176;49.502;11.754;2023-04-25T02:08:10;6.83;;;4.83;;
21183;SDS011;18176;49.502;11.754;2023-04-25T02:12:13;8.20;;;5.10;;
21183;SDS011;18176;49.502;11.754;2023-04-25T02:16:28;6.03;;;4.80;;
21183;SDS011;18176;49.502;11.754;2023-04-25T02:20:30;7.03;;;5.00;;
21183;SDS011;18176;49.502;11.754;2023-04-25T02:24:31;6.00;;;5.03;;
21183;SDS011;18176;49.502;11.754;2023-04-25T02:28:34;6.57;;;5.00;;
21183;SDS011;18176;49.502;11.754;2023-04-25T02:32:35;7.80;;;5.00;;
21183;SDS011;18176;49.502;11.754;2023-04-25T02:36:35;7.87;;;5.13;;
21183;SDS011;18176;49.502;11.754;2023-04-25T02:40:36;7.03;;;5.17;;
21183;SDS011;18176;49.502;11.754;2023-04-25T02:44:39;6.63;;;5.20;;
21183;SDS011;18176;49.502;11.754;2023-04-25T02:48:39;6.77;;;5.10;;
21183;SDS011;18176;49.502;11.754;2023-04-25T02:52:40;7.73;;;4.47;;
21183;SDS011;18176;49.502;11.754;2023-04-25T02:56:44;7.33;;;5.10;;
21183;SDS011;18176;49.502;11.754;2023-04-25T03:00:54;6.57;;;4.70;;
21183;SDS011;18176;49.502;11.754;2023-04-25T03:04:54;6.10;;;4.83;;
21183;SDS011;18176;49.502;11.754;2023-04-25T03:08:56;6.80;;;4.97;;
21183;SDS011;18176;49.502;11.754;2023-04-25T03:12:56;7.27;;;5.40;;
21183;SDS011;18176;49.502;11.754;2023-04-25T03:16:59;7.67;;;5.30;;
21183;SDS011;18176;49.502;11.754;2023-04-25T03:20:59;7.20;;;5.43;;
21183;SDS011;18176;49.502;11.754;2023-04-25T03:25:00;7.23;;;5.60;;
21183;SDS011;18176;49.502;11.754;2023-04-25T03:29:00;6.67;;;5.90;;
21183;SDS011;18176;49.502;11.754;2023-04-25T03:33:03;7.77;;;5.97;;
21183;SDS011;18176;49.502;11.754;2023-04-25T03:37:04;6.97;;;5.70;;
21183;SDS011;18176;49.502;11.754;2023-04-25T03:41:07;6.53;;;5.40;;
21183;SDS011;18176;49.502;11.754;2023-04-25T03:45:11;8.57;;;6.20;;
21183;SDS011;18176;49.502;11.754;2023-04-25T03:49:14;8.50;;;6.73;;
21183;SDS011;18176;49.502;11.754;2023-04-25T03:53:26;9.33;;;6.90;;
21183;SDS011;18176;49.502;11.754;2023-04-25T03:57:45;10.03;;;7.37;;
21183;SDS011;18176;49.502;11.754;2023-04-25T04:01:46;12.37;;;7.50;;
21183;SDS011;18176;49.502;11.754;2023-04-25T04:05:49;9.73;;;7.07;;
21183;SDS011;18176;49.502;11.754;2023-04-25T04:09:50;10.27;;;6.90;;
21183;SDS011;18176;49.502;11.754;2023-04-25T04:13:56;9.63;;;7.47;;
21183;SDS011;18176;49.502;11.754;2023-04-25T04:17:57;12.17;;;7.27;;
21183;SDS011;18176;49.502;11.754;2023-04-25T04:22:02;10.03;;;7.77;;
21183;SDS011;18176;49.502;11.754;2023-04-25T04:26:03;10.50;;;7.97;;
21183;SDS011;18176;49.502;11.754;2023-04-25T04:30:26;12.80;;;8.53;;
21183;SDS011;18176;49.502;11.754;2023-04-25T04:34:29;14.03;;;8.40;;
21183;SDS011;18176;49.502;11.754;2023-04-25T04:38:33;10.57;;;7.50;;
21183;SDS011;18176;49.502;11.754;2023-04-25T04:42:39;11.30;;;7.93;;
21183;SDS011;18176;49.502;11.754;2023-04-25T04:47:04;11.73;;;8.03;;
21183;SDS011;18176;49.502;11.754;2023-04-25T04:51:25;14.67;;;8.17;;
21183;SDS011;18176;49.502;11.754;2023-04-25T04:55:36;10.70;;;7.50;;
21183;SDS011;18176;49.502;11.754;2023-04-25T04:59:57;10.07;;;7.27;;
21183;SDS011;18176;49.502;11.754;2023-04-25T05:04:24;10.50;;;7.73;;
21183;SDS011;18176;49.502;11.754;2023-04-25T05:08:46;9.07;;;6.80;;
21183;SDS011;18176;49.502;11.754;2023-04-25T05:13:09;7.73;;;6.47;;
21183;SDS011;18176;49.502;11.754;2023-04-25T05:17:18;8.70;;;6.03;;
21183;SDS011;18176;49.502;11.754;2023-04-25T05:21:37;8.87;;;5.67;;
21183;SDS011;18176;49.502;11.754;2023-04-25T05:25:45;8.37;;;5.83;;
21183;SDS011;18176;49.502;11.754;2023-04-25T05:30:09;8.23;;;5.67;;
21183;SDS011;18176;49.502;11.754;2023-04-25T05:34:26;6.63;;;4.93;;
21183;SDS011;18176;49.502;11.754;2023-04-25T05:38:32;7.43;;;5.13;;
21183;SDS011;18176;49.502;11.754;2023-04-25T05:42:56;6.97;;;5.50;;
21183;SDS011;18176;49.502;11.754;2023-04-25T05:47:14;11.20;;;5.60;;
21183;SDS011;18176;49.502;11.754;2023-04-25T05:51:35;6.23;;;5.30;;
21183;SDS011;18176;49.502;11.754;2023-04-25T05:55:56;6.43;;;5.20;;
21183;SDS011;18176;49.502;11.754;2023-04-25T05:59:57;6.33;;;5.47;;
21183;SDS011;18176;49.502;11.754;2023-04-25T06:04:26;8.03;;;5.53;;
21183;SDS011;18176;49.502;11.754;2023-04-25T06:08:27;6.77;;;5.40;;
21183;SDS011;18176;49.502;11.754;2023-04-25T06:12:28;6.47;;;5.60;;
21183;SDS011;18176;49.502;11.754;2023-04-25T06:16:28;9.03;;;5.50;;
21183;SDS011;18176;49.502;11.754;2023-04-25T06:20:31;7.60;;;5.73;;
21183;SDS011;18176;49.502;11.754;2023-04-25T06:24:32;6.37;;;5.53;;
21183;SDS011;18176;49.502;11.754;2023-04-25T06:28:33;7.53;;;5.90;;
21183;SDS011;18176;49.502;11.754;2023-04-25T06:32:34;10.03;;;6.33;;
21183;SDS011;18176;49.502;11.754;2023-04-25T06:36:37;7.60;;;5.80;;
21183;SDS011;18176;49.502;11.754;2023-04-25T06:40:41;9.57;;;5.97;;
21183;SDS011;18176;49.502;11.754;2023-04-25T06:44:41;8.90;;;5.93;;
21183;SDS011;18176;49.502;11.754;2023-04-25T06:48:42;9.97;;;6.73;;
21183;SDS011;18176;49.502;11.754;2023-04-25T06:52:45;8.27;;;5.93;;
21183;SDS011;18176;49.502;11.754;2023-04-25T06:56:46;6.40;;;5.80;;
21183;SDS011;18176;49.502;11.754;2023-04-25T07:00:47;9.20;;;6.33;;
21183;SDS011;18176;49.502;11.754;2023-04-25T07:04:49;8.07;;;6.03;;
21183;SDS011;18176;49.502;11.754;2023-04-25T07:08:54;7.70;;;6.17;;
21183;SDS011;18176;49.502;11.754;2023-04-25T07:12:54;6.63;;;5.83;;
21183;SDS011;18176;49.502;11.754;2023-04-25T07:16:55;8.50;;;5.97;;
21183;SDS011;18176;49.502;11.754;2023-04-25T07:20:58;8.20;;;6.00;;
21183;SDS011;18176;49.502;11.754;2023-04-25T07:25:02;6.27;;;5.57;;
21183;SDS011;18176;49.502;11.754;2023-04-25T07:29:05;8.27;;;5.97;;
21183;SDS011;18176;49.502;11.754;2023-04-25T07:33:05;7.20;;;5.73;;
21183;SDS011;18176;49.502;11.754;2023-04-25T07:37:05;8.67;;;6.10;;
21183;SDS011;18176;49.502;11.754;2023-04-25T07:41:18;9.10;;;5.77;;
21183;SDS011;18176;49.502;11.754;2023-04-25T07:45:19;4.77;;;4.00;;
21183;SDS011;18176;49.502;11.754;2023-04-25T07:49:20;4.73;;;3.67;;
21183;SDS011;18176;49.502;11.754;2023-04-25T07:53:21;7.47;;;3.60;;
21183;SDS011;18176;49.502;11.754;2023-04-25T07:57:29;4.70;;;3.20;;
21183;SDS011;18176;49.502;11.754;2023-04-25T08:01:31;4.67;;;3.30;;
21183;SDS011;18176;49.502;11.754;2023-04-25T08:05:34;8.00;;;3.30;;
21183;SDS011;18176;49.502;11.754;2023-04-25T08:09:36;7.80;;;3.83;;
21183;SDS011;18176;49.502;11.754;2023-04-25T08:13:44;5.33;;;3.90;;
21183;SDS011;18176;49.502;11.754;2023-04-25T08:17:45;7.03;;;4.27;;
21183;SDS011;18176;49.502;11.754;2023-04-25T08:21:46;5.70;;;4.50;;
21183;SDS011;18176;49.502;11.754;2023-04-25T08:25:55;6.67;;;4.53;;
21183;SDS011;18176;49.502;11.754;2023-04-25T08:30:00;8.23;;;4.27;;
21183;SDS011;18176;49.502;11.754;2023-04-25T08:34:02;7.97;;;4.33;;
21183;SDS011;18176;49.502;11.754;2023-04-25T08:38:21;7.43;;;4.70;;
21183;SDS011;18176;49.502;11.754;2023-04-25T08:42:22;7.57;;;4.63;;
21183;SDS011;18176;49.502;11.754;2023-04-25T08:46:29;6.67;;;4.43;;
21183;SDS011;18176;49.502;11.754;2023-04-25T08:50:48;7.30;;;4.83;;
21183;SDS011;18176;49.502;11.754;2023-04-25T08:54:52;7.33;;;4.63;;
21183;SDS011;18176;49.502;11.754;2023-04-25T08:58:56;6.13;;;4.63;;
21183;SDS011;18176;49.502;11.754;2023-04-25T09:03:00;5.47;;;4.40;;
21183;SDS011;18176;49.502;11.754;2023-04-25T09:07:03;4.13;;;3.63;;
21183;SDS011;18176;49.502;11.754;2023-04-25T09:11:03;5.00;;;3.90;;
21183;SDS011;18176;49.502;11.754;2023-04-25T09:15:05;4.77;;;3.97;;
21183;SDS011;18176;49.502;11.754;2023-04-25T09:19:34;5.40;;;3.93;;
21183;SDS011;18176;49.502;11.754;2023-04-25T09:23:51;5.07;;;4.07;;
21183;SDS011;18176;49.502;11.754;2023-04-25T09:27:53;5.53;;;4.17;;
21183;SDS011;18176;49.502;11.754;2023-04-25T09:32:10;5.50;;;4.03;;
21183;SDS011;18176;49.502;11.754;2023-04-25T09:36:23;6.60;;;4.80;;
21183;SDS011;18176;49.502;11.754;2023-04-25T09:40:48;6.50;;;4.70;;
21183;SDS011;18176;49.502;11.754;2023-04-25T09:45:08;5.30;;;4.57;;
21183;SDS011;18176;49.502;11.754;2023-04-25T09:49:14;8.18;;;4.50;;
21183;SDS011;18176;49.502;11.754;2023-04-25T09:53:26;5.15;;;4.40;;
21183;SDS011;18176;49.502;11.754;2023-04-25T09:58:00;5.00;;;4.50;;
21183;SDS011;18176;49.502;11.754;2023-04-25T10:02:05;5.32;;;4.80;;
21183;SDS011;18176;49.502;11.754;2023-04-25T10:06:08;6.28;;;5.40;;
21183;SDS011;18176;49.502;11.754;2023-04-25T10:10:16;6.68;;;5.00;;
21183;SDS011;18176;49.502;11.754;2023-04-25T10:14:22;6.05;;;4.82;;
21183;SDS011;18176;49.502;11.754;2023-04-25T10:18:23;5.50;;;4.88;;
21183;SDS011;18176;49.502;11.754;2023-04-25T10:22:26;7.43;;;4.70;;
21183;SDS011;18176;49.502;11.754;2023-04-25T10:26:34;7.15;;;4.50;;
21183;SDS011;18176;49.502;11.754;2023-04-25T10:30:35;5.45;;;4.35;;
21183;SDS011;18176;49.502;11.754;2023-04-25T10:34:39;6.45;;;3.88;;
21183;SDS011;18176;49.502;11.754;2023-04-25T10:38:44;5.13;;;3.50;;
21183;SDS011;18176;49.502;11.754;2023-04-25T10:42:49;6.03;;;3.78;;
21183;SDS011;18176;49.502;11.754;2023-04-25T10:46:51;4.05;;;3.28;;
21183;SDS011;18176;49.502;11.754;2023-04-25T10:51:06;5.57;;;3.57;;
21183;SDS011;18176;49.502;11.754;2023-04-25T10:55:08;5.50;;;3.40;;
21183;SDS011;18176;49.502;11.754;2023-04-25T10:59:11;5.37;;;3.30;;
21183;SDS011;18176;49.502;11.754;2023-04-25T11:03:15;6.27;;;3.57;;
21183;SDS011;18176;49.502;11.754;2023-04-25T11:07:17;6.17;;;3.63;;
21183;SDS011;18176;49.502;11.754;2023-04-25T11:11:28;4.43;;;3.60;;
21183;SDS011;18176;49.502;11.754;2023-04-25T11:15:32;5.28;;;3.38;;
21183;SDS011;18176;49.502;11.754;2023-04-25T11:19:32;5.07;;;3.30;;
21183;SDS011;18176;49.502;11.754;2023-04-25T11:23:33;4.38;;;3.45;;
21183;SDS011;18176;49.502;11.754;2023-04-25T11:27:34;6.40;;;3.35;;
21183;SDS011;18176;49.502;11.754;2023-04-25T11:31:43;3.22;;;2.92;;
21183;SDS011;18176;49.502;11.754;2023-04-25T11:35:44;5.90;;;2.80;;
21183;SDS011;18176;49.502;11.754;2023-04-25T11:39:44;3.10;;;2.58;;
21183;SDS011;18176;49.502;11.754;2023-04-25T11:43:45;4.78;;;2.75;;
21183;SDS011;18176;49.502;11.754;2023-04-25T11:47:51;3.53;;;2.30;;
21183;SDS011;18176;49.502;11.754;2023-04-25T11:51:52;3.38;;;2.40;;
21183;SDS011;18176;49.502;11.754;2023-04-25T11:55:52;4.10;;;2.90;;
21183;SDS011;18176;49.502;11.754;2023-04-25T11:59:52;3.97;;;2.80;;
21183;SDS011;18176;49.502;11.754;2023-04-25T12:03:55;2.90;;;2.03;;
21183;SDS011;18176;49.502;11.754;2023-04-25T12:07:56;3.55;;;2.53;;
21183;SDS011;18176;49.502;11.754;2023-04-25T12:11:57;3.47;;;2.27;;
21183;SDS011;18176;49.502;11.754;2023-04-25T12:16:02;3.85;;;2.22;;
21183;SDS011;18176;49.502;11.754;2023-04-25T12:20:08;2.50;;;1.90;;
21183;SDS011;18176;49.502;11.754;2023-04-25T12:24:12;2.67;;;1.90;;
21183;SDS011;18176;49.502;11.754;2023-04-25T12:28:16;3.53;;;2.75;;
21183;SDS011;18176;49.502;11.754;2023-04-25T12:32:20;4.03;;;2.10;;
21183;SDS011;18176;49.502;11.754;2023-04-25T12:36:24;3.35;;;2.08;;
21183;SDS011;18176;49.502;11.754;2023-04-25T12:40:24;4.10;;;1.90;;
21183;SDS011;18176;49.502;11.754;2023-04-25T12:44:25;3.33;;;1.77;;
21183;SDS011;18176;49.502;11.754;2023-04-25T12:48:25;3.97;;;1.90;;
21183;SDS011;18176;49.502;11.754;2023-04-25T12:52:28;2.45;;;1.73;;
21183;SDS011;18176;49.502;11.754;2023-04-25T12:56:28;4.70;;;1.80;;
21183;SDS011;18176;49.502;11.754;2023-04-25T13:00:28;2.67;;;1.80;;
21183;SDS011;18176;49.502;11.754;2023-04-25T13:04:29;1.13;;;0.90;;
21183;SDS011;18176;49.502;11.754;2023-04-25T13:08:32;2.58;;;1.20;;
21183;SDS011;18176;49.502;11.754;2023-04-25T13:12:33;1.00;;;0.90;;
21183;SDS011;18176;49.502;11.754;2023-04-25T13:16:33;1.52;;;1.00;;
21183;SDS011;18176;49.502;11.754;2023-04-25T13:20:33;1.20;;;1.10;;
21183;SDS011;18176;49.502;11.754;2023-04-25T13:24:36;1.38;;;1.17;;
21183;SDS011;18176;49.502;11.754;2023-04-25T13:28:37;1.35;;;1.13;;
21183;SDS011;18176;49.502;11.754;2023-04-25T13:32:40;0.98;;;0.95;;
21183;SDS011;18176;49.502;11.754;2023-04-25T13:36:40;1.48;;;1.10;;
21183;SDS011;18176;49.502;11.754;2023-04-25T13:40:43;1.33;;;0.90;;
21183;SDS011;18176;49.502;11.754;2023-04-25T13:44:43;1.17;;;1.07;;
21183;SDS011;18176;49.502;11.754;2023-04-25T13:48:43;1.55;;;1.00;;
21183;SDS011;18176;49.502;11.754;2023-04-25T13:52:45;1.25;;;1.10;;
21183;SDS011;18176;49.502;11.754;2023-04-25T13:56:47;1.98;;;1.20;;
21183;SDS011;18176;49.502;11.754;2023-04-25T14:00:51;1.98;;;1.17;;
21183;SDS011;18176;49.502;11.754;2023-04-25T14:04:51;1.30;;;1.20;;
21183;SDS011;18176;49.502;11.754;2023-04-25T14:08:52;1.80;;;1.37;;
21183;SDS011;18176;49.502;11.754;2023-04-25T14:12:55;4.27;;;1.60;;
21183;SDS011;18176;49.502;11.754;2023-04-25T14:16:55;2.27;;;1.40;;
21183;SDS011;18176;49.502;11.754;2023-04-25T14:20:55;1.50;;;1.40;;
21183;SDS011;18176;49.502;11.754;2023-04-25T14:24:56;2.13;;;1.50;;
21183;SDS011;18176;49.502;11.754;2023-04-25T14:29:00;1.60;;;1.50;;
21183;SDS011;18176;49.502;11.754;2023-04-25T14:33:00;1.87;;;1.47;;
21183;SDS011;18176;49.502;11.754;2023-04-25T14:37:00;1.73;;;1.60;;
21183;SDS011;18176;49.502;11.754;2023-04-25T14:41:00;1.63;;;1.40;;
21183;SDS011;18176;49.502;11.754;2023-04-25T14:45:04;2.80;;;1.67;;
21183;SDS011;18176;49.502;11.754;2023-04-25T14:49:07;4.10;;;2.03;;
21183;SDS011;18176;49.502;11.754;2023-04-25T14:53:07;2.63;;;2.03;;
21183;SDS011;18176;49.502;11.754;2023-04-25T14:57:09;2.13;;;1.73;;
21183;SDS011;18176;49.502;11.754;2023-04-25T15:01:12;3.93;;;2.73;;
21183;SDS011;18176;49.502;11.754;2023-04-25T15:05:13;3.97;;;2.47;;
21183;SDS011;18176;49.502;11.754;2023-04-25T15:09:14;2.07;;;1.87;;
21183;SDS011;18176;49.502;11.754;2023-04-25T15:13:14;4.70;;;2.53;;
21183;SDS011;18176;49.502;11.754;2023-04-25T15:17:19;3.53;;;1.90;;
21183;SDS011;18176;49.502;11.754;2023-04-25T15:21:19;4.87;;;2.50;;
21183;SDS011;18176;49.502;11.754;2023-04-25T15:25:20;3.67;;;2.27;;
21183;SDS011;18176;49.502;11.754;2023-04-25T15:29:20;4.63;;;2.60;;
21183;SDS011;18176;49.502;11.754;2023-04-25T15:33:23;2.47;;;2.00;;
21183;SDS011;18176;49.502;11.754;2023-04-25T15:37:23;6.47;;;3.90;;
21183;SDS011;18176;49.502;11.754;2023-04-25T15:41:24;3.57;;;2.80;;
21183;SDS011;18176;49.502;11.754;2023-04-25T15:45:24;4.23;;;2.80;;
21183;SDS011;18176;49.502;11.754;2023-04-25T15:49:27;5.50;;;2.80;;
21183;SDS011;18176;49.502;11.754;2023-04-25T15:53:28;2.47;;;2.27;;
21183;SDS011;18176;49.502;11.754;2023-04-25T15:57:28;4.23;;;2.90;;
21183;SDS011;18176;49.502;11.754;2023-04-25T16:01:29;6.60;;;3.60;;
21183;SDS011;18176;49.502;11.754;2023-04-25T16:05:32;5.00;;;2.60;;
21183;SDS011;18176;49.502;11.754;2023-04-25T16:09:33;3.13;;;2.10;;
21183;SDS011;18176;49.502;11.754;2023-04-25T16:13:34;4.67;;;2.70;;
21183;SDS011;18176;49.502;11.754;2023-04-25T16:17:34;3.60;;;2.43;;
21183;SDS011;18176;49.502;11.754;2023-04-25T16:21:38;6.13;;;3.20;;
21183;SDS011;18176;49.502;11.754;2023-04-25T16:25:38;5.20;;;2.33;;
21183;SDS011;18176;49.502;11.754;2023-04-25T16:29:40;3.47;;;2.50;;
21183;SDS011;18176;49.502;11.754;2023-04-25T16:33:43;6.70;;;3.90;;
21183;SDS011;18176;49.502;11.754;2023-04-25T16:37:46;5.27;;;3.70;;
21183;SDS011;18176;49.502;11.754;2023-04-25T16:41:47;4.33;;;2.77;;
21183;SDS011;18176;49.502;11.754;2023-04-25T16:45:47;4.23;;;2.90;;
21183;SDS011;18176;49.502;11.754;2023-04-25T16:49:47;4.10;;;2.90;;
21183;SDS011;18176;49.502;11.754;2023-04-25T16:53:51;3.80;;;2.37;;
21183;SDS011;18176;49.502;11.754;2023-04-25T16:57:51;8.27;;;4.73;;
21183;SDS011;18176;49.502;11.754;2023-04-25T17:01:51;3.77;;;2.63;;
21183;SDS011;18176;49.502;11.754;2023-04-25T17:05:52;4.20;;;2.73;;
21183;SDS011;18176;49.502;11.754;2023-04-25T17:09:59;3.73;;;2.57;;
21183;SDS011;18176;49.502;11.754;2023-04-25T17:13:59;6.77;;;2.73;;
21183;SDS011;18176;49.502;11.754;2023-04-25T17:17:59;4.37;;;3.17;;
21183;SDS011;18176;49.502;11.754;2023-04-25T17:22:00;4.00;;;2.57;;
21183;SDS011;18176;49.502;11.754;2023-04-25T17:26:02;5.50;;;2.97;;
21183;SDS011;18176;49.502;11.754;2023-04-25T17:30:03;5.13;;;2.53;;
21183;SDS011;18176;49.502;11.754;2023-04-25T17:34:05;6.10;;;2.87;;
21183;SDS011;18176;49.502;11.754;2023-04-25T17:38:07;6.93;;;2.63;;
21183;SDS011;18176;49.502;11.754;2023-04-25T17:42:10;6.07;;;2.70;;
21183;SDS011;18176;49.502;11.754;2023-04-25T17:46:10;7.00;;;3.40;;
21183;SDS011;18176;49.502;11.754;2023-04-25T17:50:11;7.40;;;3.37;;
21183;SDS011;18176;49.502;11.754;2023-04-25T17:54:12;6.93;;;3.70;;
21183;SDS011;18176;49.502;11.754;2023-04-25T17:58:16;8.83;;;3.63;;
21183;SDS011;18176;49.502;11.754;2023-04-25T18:02:17;7.07;;;3.80;;
21183;SDS011;18176;49.502;11.754;2023-04-25T18:06:17;8.13;;;4.30;;
21183;SDS011;18176;49.502;11.754;2023-04-25T18:10:18;8.47;;;4.90;;
21183;SDS011;18176;49.502;11.754;2023-04-25T18:14:21;5.43;;;3.40;;
21183;SDS011;18176;49.502;11.754;2023-04-25T18:18:21;5.67;;;2.97;;
21183;SDS011;18176;49.502;11.754;2023-04-25T18:22:28;6.80;;;3.43;;
21183;SDS011;18176;49.502;11.754;2023-04-25T18:26:29;6.63;;;3.23;;
21183;SDS011;18176;49.502;11.754;2023-04-25T18:30:32;5.10;;;3.30;;
21183;SDS011;18176;49.502;11.754;2023-04-25T18:34:33;7.13;;;3.50;;
21183;SDS011;18176;49.502;11.754;2023-04-25T18:38:37;7.33;;;3.23;;
21183;SDS011;18176;49.502;11.754;2023-04-25T18:42:37;7.20;;;3.37;;
21183;SDS011;18176;49.502;11.754;2023-04-25T18:46:41;9.77;;;5.00;;
21183;SDS011;18176;49.502;11.754;2023-04-25T18:50:42;11.43;;;5.93;;
21183;SDS011;18176;49.502;11.754;2023-04-25T18:54:43;11.83;;;4.60;;
21183;SDS011;18176;49.502;11.754;2023-04-25T18:58:43;8.60;;;3.90;;
21183;SDS011;18176;49.502;11.754;2023-04-25T19:07:26;7.67;;;4.40;;
21183;SDS011;18176;49.502;11.754;2023-04-25T19:11:28;10.77;;;4.70;;
21183;SDS011;18176;49.502;11.754;2023-04-25T19:15:28;12.70;;;7.03;;
21183;SDS011;18176;49.502;11.754;2023-04-25T19:19:29;14.13;;;6.40;;
21183;SDS011;18176;49.502;11.754;2023-04-25T19:23:32;8.07;;;5.17;;
21183;SDS011;18176;49.502;11.754;2023-04-25T19:27:32;9.67;;;4.30;;
21183;SDS011;18176;49.502;11.754;2023-04-25T19:31:33;9.70;;;4.00;;
21183;SDS011;18176;49.502;11.754;2023-04-25T19:35:35;8.90;;;4.57;;
21183;SDS011;18176;49.502;11.754;2023-04-25T19:39:38;7.97;;;4.30;;
21183;SDS011;18176;49.502;11.754;2023-04-25T19:43:39;12.37;;;4.57;;
21183;SDS011;18176;49.502;11.754;2023-04-25T19:47:39;6.83;;;4.10;;
21183;SDS011;18176;49.502;11.754;2023-04-25T19:51:40;9.93;;;4.17;;
21183;SDS011;18176;49.502;11.754;2023-04-25T19:55:44;11.53;;;4.47;;
21183;SDS011;18176;49.502;11.754;2023-04-25T19:59:44;7.87;;;3.93;;
21183;SDS011;18176;49.502;11.754;2023-04-25T20:03:45;8.47;;;3.67;;
21183;SDS011;18176;49.502;11.754;2023-04-25T20:07:47;9.60;;;4.10;;
21183;SDS011;18176;49.502;11.754;2023-04-25T20:11:51;8.37;;;4.20;;
21183;SDS011;18176;49.502;11.754;2023-04-25T20:15:51;7.37;;;4.40;;
21183;SDS011;18176;49.502;11.754;2023-04-25T20:19:51;10.40;;;4.30;;
21183;SDS011;18176;49.502;11.754;2023-04-25T20:23:52;9.10;;;4.07;;
21183;SDS011;18176;49.502;11.754;2023-04-25T20:27:56;10.57;;;4.87;;
21183;SDS011;18176;49.502;11.754;2023-04-25T20:31:56;13.47;;;6.23;;
21183;SDS011;18176;49.502;11.754;2023-04-25T20:35:59;8.50;;;4.10;;
21183;SDS011;18176;49.502;11.754;2023-04-25T20:39:59;8.33;;;4.03;;
21183;SDS011;18176;49.502;11.754;2023-04-25T20:44:04;9.50;;;4.47;;
21183;SDS011;18176;49.502;11.754;2023-04-25T20:48:05;8.90;;;4.93;;
21183;SDS011;18176;49.502;11.754;2023-04-25T20:52:06;10.20;;;4.50;;
21183;SDS011;18176;49.502;11.754;2023-04-25T20:56:06;8.73;;;4.07;;
21183;SDS011;18176;49.502;11.754;2023-04-25T21:00:11;10.07;;;3.70;;
21183;SDS011;18176;49.502;11.754;2023-04-25T21:04:22;5.47;;;2.93;;
21183;SDS011;18176;49.502;11.754;2023-04-25T21:08:22;7.77;;;2.50;;
21183;SDS011;18176;49.502;11.754;2023-04-25T21:12:23;8.30;;;2.80;;
21183;SDS011;18176;49.502;11.754;2023-04-25T21:16:26;7.90;;;2.77;;
21183;SDS011;18176;49.502;11.754;2023-04-25T21:20:30;15.43;;;3.37;;
21183;SDS011;18176;49.502;11.754;2023-04-25T21:24:31;10.70;;;3.17;;
21183;SDS011;18176;49.502;11.754;2023-04-25T21:28:31;7.80;;;3.37;;
21183;SDS011;18176;49.502;11.754;2023-04-25T21:32:34;7.87;;;3.33;;
21183;SDS011;18176;49.502;11.754;2023-04-25T21:36:35;6.23;;;3.30;;
21183;SDS011;18176;49.502;11.754;2023-04-25T21:40:39;7.53;;;3.30;;
21183;SDS011;18176;49.502;11.754;2023-04-25T21:44:39;10.70;;;3.37;;
21183;SDS011;18176;49.502;11.754;2023-04-25T21:48:42;13.53;;;3.60;;
21183;SDS011;18176;49.502;11.754;2023-04-25T21:52:43;7.80;;;3.07;;
21183;SDS011;18176;49.502;11.754;2023-04-25T21:56:44;6.57;;;3.27;;
21183;SDS011;18176;49.502;11.754;2023-04-25T22:00:44;8.20;;;3.50;;
21183;SDS011;18176;49.502;11.754;2023-04-25T22:04:47;5.37;;;3.03;;
21183;SDS011;18176;49.502;11.754;2023-04-25T22:08:48;6.80;;;2.90;;
21183;SDS011;18176;49.502;11.754;2023-04-25T22:12:48;6.70;;;3.50;;
21183;SDS011;18176;49.502;11.754;2023-04-25T22:16:49;6.73;;;3.07;;
21183;SDS011;18176;49.502;11.754;2023-04-25T22:20:52;9.27;;;3.30;;
21183;SDS011;18176;49.502;11.754;2023-04-25T22:24:52;6.80;;;3.27;;
21183;SDS011;18176;49.502;11.754;2023-04-25T22:28:53;8.73;;;2.83;;
21183;SDS011;18176;49.502;11.754;2023-04-25T22:32:53;9.97;;;3.40;;
21183;SDS011;18176;49.502;11.754;2023-04-25T22:36:56;7.37;;;3.00;;
21183;SDS011;18176;49.502;11.754;2023-04-25T22:40:56;9.83;;;2.90;;
21183;SDS011;18176;49.502;11.754;2023-04-25T22:44:58;5.87;;;2.73;;
21183;SDS011;18176;49.502;11.754;2023-04-25T22:48:58;6.70;;;3.30;;
21183;SDS011;18176;49.502;11.754;2023-04-25T22:53:01;12.07;;;2.93;;
21183;SDS011;18176;49.502;11.754;2023-04-25T22:57:05;9.20;;;3.40;;
21183;SDS011;18176;49.502;11.754;2023-04-25T23:01:05;13.37;;;6.00;;
21183;SDS011;18176;49.502;11.754;2023-04-25T23:05:07;11.67;;;6.13;;
21183;SDS011;18176;49.502;11.754;2023-04-25T23:09:11;10.00;;;4.77;;
21183;SDS011;18176;49.502;11.754;2023-04-25T23:13:11;9.67;;;4.40;;
21183;SDS011;18176;49.502;11.754;2023-04-25T23:17:12;11.07;;;4.40;;
21183;SDS011;18176;49.502;11.754;2023-04-25T23:21:12;9.17;;;3.97;;
21183;SDS011;18176;49.502;11.754;2023-04-25T23:25:15;9.40;;;3.80;;
21183;SDS011;18176;49.502;11.754;2023-04-25T23:29:16;7.23;;;3.77;;
21183;SDS011;18176;49.502;11.754;2023-04-25T23:33:16;9.43;;;3.73;;
21183;SDS011;18176;49.502;11.754;2023-04-25T23:37:16;9.67;;;3.93;;
21183;SDS011;18176;49.502;11.754;2023-04-25T23:41:19;10.83;;;4.43;;
21183;SDS011;18176;49.502;11.754;2023-04-25T23:45:20;10.00;;;4.70;;
21183;SDS011;18176;49.502;11.754;2023-04-25T23:49:20;10.67;;;4.47;;
21183;SDS011;18176;49.502;11.754;2023-04-25T23:53:21;8.17;;;3.73;;
21183;SDS011;18176;49.502;11.754;2023-04-25T23:57:24;8.90;;;3.53;;
